createdAt,value
2023-03-06T00:01:02.130Z,99346.44
2023-03-06T00:03:30.953Z,99344.78
2023-03-06T00:06:00.119Z,99397.19
2023-03-06T00:08:30.032Z,99449.59
2023-03-06T00:10:59.133Z,99429.97
2023-03-06T00:13:30.760Z,99424.84
2023-03-06T00:16:01.818Z,99426.56
2023-03-06T00:18:30.705Z,99418.19
2023-03-06T00:20:59.543Z,99454.28
2023-03-06T00:23:28.502Z,99426.84
2023-03-06T00:25:57.218Z,99437.34
2023-03-06T00:28:26.718Z,99298.59
2023-03-06T00:30:55.444Z,99429.72
2023-03-06T00:33:24.082Z,99425.56
2023-03-06T00:35:55.076Z,99411.91
2023-03-06T00:38:23.995Z,99425.69
2023-03-06T00:40:52.677Z,99446.44
2023-03-06T00:43:22.842Z,99418.09
2023-03-06T00:45:51.584Z,99449.16
2023-03-06T00:48:20.210Z,99439.69
2023-03-06T00:50:49.019Z,99427.72
2023-03-06T00:53:17.618Z,99433.84
2023-03-06T00:55:46.914Z,99424.44
2023-03-06T00:58:15.788Z,99420.19
2023-03-06T01:00:44.892Z,99433.13
2023-03-06T01:03:13.835Z,99410.00
2023-03-06T01:05:42.909Z,99421.19
2023-03-06T01:08:11.834Z,99428.06
2023-03-06T01:10:41.452Z,99398.09
2023-03-06T01:13:10.972Z,99416.13
2023-03-06T01:15:39.671Z,99417.84
2023-03-06T01:18:11.214Z,99382.69
2023-03-06T01:20:40.074Z,99388.75
2023-03-06T01:23:09.519Z,99386.22
2023-03-06T01:25:37.990Z,99387.09
2023-03-06T01:28:07.009Z,99416.28
2023-03-06T01:30:37.361Z,99416.28
2023-03-06T01:33:06.257Z,99418.84
2023-03-06T01:35:35.403Z,99379.38
2023-03-06T01:38:04.138Z,99406.84
2023-03-06T01:40:34.633Z,99400.91
2023-03-06T01:43:43.020Z,99430.97
2023-03-06T01:46:39.574Z,99371.75
2023-03-06T01:49:14.602Z,99416.41
2023-03-06T01:51:54.735Z,99411.25
2023-03-06T01:54:35.875Z,99357.19
2023-03-06T01:57:10.534Z,99357.22
2023-03-06T01:59:41.316Z,99363.28
2023-03-06T02:02:12.825Z,99396.69
2023-03-06T02:04:44.775Z,99382.94
2023-03-06T02:07:16.038Z,99359.75
2023-03-06T02:09:44.748Z,99352.91
2023-03-06T02:12:18.079Z,99304.91
2023-03-06T02:14:47.946Z,99365.72
2023-03-06T02:17:20.678Z,99346.75
2023-03-06T02:20:08.612Z,99353.53
2023-03-06T02:22:55.249Z,99332.81
2023-03-06T02:25:34.739Z,99313.06
2023-03-06T02:28:05.398Z,99328.53
2023-03-06T02:30:34.565Z,99344.88
2023-03-06T02:33:04.996Z,99333.81
2023-03-06T02:35:39.252Z,99344.03
2023-03-06T02:38:12.643Z,99368.91
2023-03-06T02:40:47.820Z,99313.22
2023-03-06T02:43:21.156Z,99290.88
2023-03-06T02:45:51.618Z,99347.41
2023-03-06T02:48:21.844Z,99354.22
2023-03-06T02:50:50.460Z,99358.47
2023-03-06T02:53:20.873Z,99372.13
2023-03-06T02:55:50.420Z,99366.03
2023-03-06T02:58:22.534Z,99408.13
2023-03-06T03:00:51.557Z,99381.47
2023-03-06T03:03:21.993Z,99385.66
2023-03-06T03:05:50.669Z,99365.88
2023-03-06T03:08:25.994Z,99380.41
2023-03-06T03:10:59.171Z,99377.00
2023-03-06T03:13:34.580Z,99366.63
2023-03-06T03:16:09.721Z,99388.13
2023-03-06T03:18:38.499Z,99374.31
2023-03-06T03:21:13.435Z,99381.06
2023-03-06T03:23:42.781Z,99365.59
2023-03-06T03:26:13.759Z,99359.47
2023-03-06T03:28:46.227Z,99373.00
2023-03-06T03:31:18.641Z,99370.22
2023-03-06T03:33:47.565Z,99380.34
2023-03-06T03:36:18.976Z,99365.66
2023-03-06T03:38:50.534Z,99356.03
2023-03-06T03:41:19.955Z,99341.97
2023-03-06T03:43:49.224Z,99338.28
2023-03-06T03:46:18.826Z,99333.09
2023-03-06T03:48:48.063Z,99323.38
2023-03-06T03:51:18.270Z,99320.59
2023-03-06T03:53:51.507Z,99348.16
2023-03-06T03:56:24.079Z,99341.94
2023-03-06T03:59:07.789Z,99322.13
2023-03-06T04:01:43.545Z,99307.56
2023-03-06T04:04:12.374Z,99280.38
2023-03-06T04:06:42.812Z,99306.81
2023-03-06T04:09:12.266Z,99308.53
2023-03-06T04:11:41.413Z,99300.59
2023-03-06T04:14:13.354Z,99323.75
2023-03-06T04:16:42.141Z,99317.00
2023-03-06T04:19:12.313Z,99298.16
2023-03-06T04:21:41.643Z,99286.22
2023-03-06T04:24:10.781Z,99271.38
2023-03-06T04:26:39.637Z,99315.84
2023-03-06T04:29:08.514Z,99287.47
2023-03-06T04:31:37.308Z,99272.09
2023-03-06T04:34:06.097Z,99269.19
2023-03-06T04:36:36.458Z,99271.44
2023-03-06T04:39:09.387Z,99289.38
2023-03-06T04:41:38.487Z,99282.94
2023-03-06T04:44:07.696Z,99280.09
2023-03-06T04:46:36.998Z,99194.59
2023-03-06T04:49:05.787Z,99276.50
2023-03-06T04:51:37.566Z,99245.88
2023-03-06T04:54:06.745Z,99242.28
2023-03-06T04:56:35.848Z,99249.69
2023-03-06T04:59:05.400Z,99252.22
2023-03-06T05:01:34.163Z,99225.59
2023-03-06T05:04:03.056Z,99236.44
2023-03-06T05:06:32.074Z,99253.28
2023-03-06T05:09:01.088Z,99171.81
2023-03-06T05:11:32.074Z,99159.56
2023-03-06T05:14:03.906Z,99238.94
2023-03-06T05:16:32.764Z,99230.31
2023-03-06T05:19:01.674Z,99273.31
2023-03-06T05:21:31.199Z,99186.22
2023-03-06T05:24:00.242Z,99250.06
2023-03-06T05:26:28.844Z,99222.09
2023-03-06T05:28:57.926Z,99228.03
2023-03-06T05:31:26.837Z,99271.28
2023-03-06T05:33:56.045Z,99258.03
2023-03-06T05:36:24.826Z,99217.22
2023-03-06T05:38:54.168Z,99255.09
2023-03-06T05:41:23.004Z,99254.00
2023-03-06T05:43:53.891Z,99244.75
2023-03-06T05:46:22.970Z,99244.28
2023-03-06T05:48:53.990Z,99239.03
2023-03-06T05:51:22.913Z,99256.16
2023-03-06T05:53:51.630Z,99222.63
2023-03-06T05:56:20.410Z,99225.88
2023-03-06T05:58:49.903Z,99223.22
2023-03-06T06:01:21.968Z,99214.44
2023-03-06T06:03:50.789Z,99222.00
2023-03-06T06:06:19.836Z,99190.06
2023-03-06T06:08:48.919Z,99215.66
2023-03-06T06:11:19.127Z,99204.41
2023-03-06T06:13:50.255Z,99241.81
2023-03-06T06:16:20.184Z,99197.06
2023-03-06T06:18:49.248Z,99156.81
2023-03-06T06:21:18.308Z,99193.38
2023-03-06T06:23:47.732Z,99201.81
2023-03-06T06:26:16.567Z,99194.28
2023-03-06T06:28:45.240Z,99178.00
2023-03-06T06:31:14.855Z,99190.59
2023-03-06T06:33:44.631Z,99195.41
2023-03-06T06:36:20.812Z,99181.03
2023-03-06T06:38:50.367Z,99167.75
2023-03-06T06:41:52.881Z,99139.13
2023-03-06T06:44:09.486Z,99149.63
2023-03-06T06:49:27.567Z,99183.19
2023-03-06T06:51:56.452Z,99157.16
2023-03-06T06:54:25.708Z,99140.41
2023-03-06T06:56:54.897Z,99152.63
2023-03-06T06:59:24.528Z,99122.50
2023-03-06T07:01:53.924Z,99129.03
2023-03-06T07:04:22.718Z,99136.50
2023-03-06T07:06:51.699Z,99145.63
2023-03-06T07:09:21.038Z,99106.38
2023-03-06T07:11:49.803Z,99120.78
2023-03-06T07:14:18.869Z,99087.00
2023-03-06T07:16:47.695Z,99120.22
2023-03-06T07:19:16.588Z,99106.31
2023-03-06T07:21:45.232Z,99100.28
2023-03-06T07:24:13.942Z,99102.66
2023-03-06T07:26:47.840Z,99092.72
2023-03-06T07:29:17.066Z,99093.56
2023-03-06T07:31:46.283Z,99099.09
2023-03-06T07:34:16.336Z,99094.09
2023-03-06T07:36:45.221Z,99127.50
2023-03-06T07:39:13.929Z,99102.72
2023-03-06T07:41:42.858Z,99115.28
2023-03-06T07:44:11.894Z,99080.22
2023-03-06T07:46:40.762Z,99077.09
2023-03-06T07:49:09.734Z,99093.78
2023-03-06T07:51:38.484Z,99093.59
2023-03-06T07:54:07.339Z,99104.19
2023-03-06T07:56:36.354Z,99086.81
2023-03-06T07:59:05.035Z,99018.25
2023-03-06T08:01:34.037Z,99073.09
2023-03-06T08:04:02.905Z,99062.44
2023-03-06T08:06:31.803Z,99099.50
2023-03-06T08:09:01.302Z,99085.41
2023-03-06T08:11:31.584Z,99055.56
2023-03-06T08:14:00.718Z,99057.22
2023-03-06T08:16:32.618Z,99073.75
2023-03-06T08:19:01.334Z,99038.66
2023-03-06T08:21:33.261Z,99030.97
2023-03-06T08:24:02.243Z,99035.56
2023-03-06T08:26:33.650Z,99015.06
2023-03-06T08:29:03.628Z,98957.78
2023-03-06T08:31:32.304Z,99050.41
2023-03-06T08:34:06.809Z,99048.03
2023-03-06T08:36:35.649Z,99041.00
2023-03-06T08:39:05.340Z,99053.06
2023-03-06T08:41:34.992Z,99026.44
2023-03-06T08:44:04.378Z,99048.75
2023-03-06T08:46:34.187Z,99054.84
2023-03-06T08:49:03.431Z,99030.41
2023-03-06T08:51:32.308Z,99049.84
2023-03-06T08:54:01.452Z,99033.03
2023-03-06T08:56:34.986Z,99032.75
2023-03-06T08:59:06.589Z,99040.28
2023-03-06T09:01:38.272Z,99035.38
2023-03-06T09:04:11.522Z,99056.03
2023-03-06T09:06:43.439Z,99035.38
2023-03-06T09:09:13.185Z,99021.72
2023-03-06T09:11:41.829Z,99031.88
2023-03-06T09:14:10.759Z,99016.41
2023-03-06T09:16:39.780Z,99016.41
2023-03-06T09:19:08.687Z,99034.81
2023-03-06T09:21:37.530Z,99009.19
2023-03-06T09:24:06.531Z,99003.84
2023-03-06T09:26:45.649Z,98939.00
2023-03-06T09:29:16.955Z,99004.66
2023-03-06T09:31:46.208Z,98999.47
2023-03-06T09:34:15.104Z,99029.56
2023-03-06T09:36:56.474Z,99008.97
2023-03-06T09:39:27.126Z,98999.25
2023-03-06T09:41:58.315Z,99028.38
2023-03-06T09:44:33.079Z,98972.78
2023-03-06T09:47:11.672Z,98994.25
2023-03-06T09:50:31.031Z,99031.78
2023-03-06T09:53:17.970Z,99035.28
2023-03-06T09:56:15.474Z,99007.88
2023-03-06T09:58:49.880Z,98989.94
2023-03-06T10:01:26.876Z,99011.06
2023-03-06T10:03:57.595Z,98992.22
2023-03-06T10:06:50.167Z,98991.25
2023-03-06T10:09:27.979Z,99023.84
2023-03-06T10:12:07.567Z,98985.38
2023-03-06T10:14:46.656Z,99013.47
2023-03-06T10:17:20.089Z,99022.00
2023-03-06T10:19:50.293Z,98974.78
2023-03-06T10:22:40.202Z,99002.66
2023-03-06T10:25:23.441Z,99004.16
2023-03-06T10:28:17.506Z,98930.91
2023-03-06T10:31:08.609Z,99012.69
2023-03-06T10:33:58.212Z,99022.91
2023-03-06T10:36:29.185Z,98983.59
2023-03-06T10:38:59.788Z,98993.97
2023-03-06T10:41:36.143Z,99027.44
2023-03-06T10:44:05.023Z,99038.72
2023-03-06T10:46:43.055Z,99001.63
2023-03-06T10:49:30.926Z,99027.25
2023-03-06T10:52:08.333Z,98987.00
2023-03-06T10:54:40.037Z,99003.03
2023-03-06T10:57:30.443Z,99025.03
2023-03-06T11:00:01.912Z,99000.66
2023-03-06T11:02:34.323Z,98986.56
2023-03-06T11:05:04.386Z,98961.84
2023-03-06T11:07:35.699Z,98977.47
2023-03-06T11:10:19.861Z,99005.50
2023-03-06T11:13:02.254Z,99016.88
2023-03-06T11:15:31.541Z,99003.22
2023-03-06T11:18:31.681Z,98991.06
2023-03-06T11:21:00.502Z,98956.34
2023-03-06T11:23:47.880Z,98983.41
2023-03-06T11:26:20.948Z,99022.88
2023-03-06T11:28:58.545Z,99022.94
2023-03-06T11:31:38.648Z,98959.63
2023-03-06T11:34:13.304Z,99003.03
2023-03-06T11:37:07.962Z,99016.88
2023-03-06T11:40:00.151Z,99011.03
2023-03-06T11:42:40.254Z,98979.84
2023-03-06T11:45:23.829Z,98937.09
2023-03-06T11:48:18.311Z,99026.72
2023-03-06T11:50:56.214Z,98929.50
2023-03-06T11:53:33.892Z,98948.78
2023-03-06T11:56:15.134Z,99032.53
2023-03-06T11:59:14.476Z,99033.59
2023-03-06T12:02:01.339Z,99041.69
2023-03-06T12:04:52.038Z,99018.00
2023-03-06T12:07:30.357Z,99035.69
2023-03-06T12:10:14.482Z,99043.63
2023-03-06T12:13:26.837Z,99049.13
2023-03-06T12:16:25.699Z,99043.91
2023-03-06T12:19:12.637Z,99016.69
2023-03-06T12:22:03.803Z,99046.72
2023-03-06T12:25:10.481Z,99050.25
2023-03-06T12:28:26.985Z,99023.81
2023-03-06T12:31:13.866Z,99043.41
2023-03-06T12:34:05.835Z,99023.19
2023-03-06T12:36:48.157Z,99041.28
2023-03-06T12:39:31.788Z,99027.41
2023-03-06T12:42:23.261Z,99005.66
2023-03-06T12:45:24.117Z,98987.31
2023-03-06T12:47:57.931Z,99015.97
2023-03-06T12:50:33.384Z,99028.81
2023-03-06T12:53:06.364Z,99036.84
2023-03-06T12:55:54.002Z,99017.31
2023-03-06T12:58:31.600Z,99039.34
2023-03-06T13:01:24.915Z,99031.78
2023-03-06T13:04:50.585Z,99029.13
2023-03-06T13:07:57.496Z,99031.91
2023-03-06T13:10:34.290Z,99017.53
2023-03-06T13:13:23.944Z,99040.78
2023-03-06T13:16:19.572Z,99037.50
2023-03-06T13:18:54.587Z,98955.19
2023-03-06T13:21:46.666Z,99048.34
2023-03-06T13:24:22.723Z,99009.81
2023-03-06T13:26:58.063Z,99055.47
2023-03-06T13:29:38.390Z,99047.91
2023-03-06T13:32:20.556Z,99048.97
2023-03-06T13:34:52.485Z,99002.78
2023-03-06T13:37:26.079Z,99033.63
2023-03-06T13:40:02.330Z,99049.25
2023-03-06T13:42:38.840Z,99052.88
2023-03-06T13:45:28.548Z,99050.47
2023-03-06T13:50:49.393Z,99051.88
2023-03-06T13:53:41.562Z,98991.13
2023-03-06T13:56:29.756Z,99052.81
2023-03-06T13:59:25.665Z,99051.22
2023-03-06T14:02:32.068Z,99067.75
2023-03-06T14:05:03.203Z,99024.41
2023-03-06T14:07:52.873Z,99054.38
2023-03-06T14:10:26.521Z,99047.75
2023-03-06T14:13:35.161Z,99074.28
2023-03-06T14:16:18.627Z,99062.66
2023-03-06T14:18:53.045Z,99094.53
2023-03-06T14:21:40.714Z,99067.47
2023-03-06T14:24:19.670Z,99092.38
2023-03-06T14:26:52.984Z,99072.97
2023-03-06T14:29:29.745Z,99042.50
2023-03-06T14:31:59.720Z,99099.97
2023-03-06T14:34:31.053Z,99104.41
2023-03-06T14:37:03.493Z,99067.94
2023-03-06T14:39:41.378Z,99117.81
2023-03-06T14:42:20.298Z,99076.09
2023-03-06T14:45:00.736Z,99097.59
2023-03-06T14:47:34.336Z,99126.03
2023-03-06T14:50:22.702Z,99133.09
2023-03-06T14:53:23.200Z,99133.28
2023-03-06T14:55:58.767Z,99101.69
2023-03-06T14:58:58.642Z,99122.41
2023-03-06T15:01:38.157Z,98987.13
2023-03-06T15:04:27.032Z,99128.13
2023-03-06T15:06:57.496Z,99123.06
2023-03-06T15:09:35.580Z,99109.56
2023-03-06T15:12:10.052Z,99136.19
2023-03-06T15:14:40.355Z,99138.03
2023-03-06T15:17:18.522Z,99144.19
2023-03-06T15:19:55.481Z,99141.81
2023-03-06T15:22:41.035Z,99145.41
2023-03-06T15:25:12.890Z,99149.75
2023-03-06T15:27:41.800Z,99137.16
2023-03-06T15:30:25.508Z,99140.84
2023-03-06T15:33:29.524Z,99076.72
2023-03-06T15:36:06.859Z,99130.81
2023-03-06T15:38:43.895Z,99141.13
2023-03-06T15:41:34.374Z,99153.25
2023-03-06T15:44:09.739Z,99153.50
2023-03-06T15:46:38.439Z,99173.38
2023-03-06T15:49:15.183Z,99096.66
2023-03-06T15:51:44.125Z,99187.34
2023-03-06T15:54:12.991Z,99107.13
2023-03-06T15:56:44.596Z,99190.09
2023-03-06T15:59:32.132Z,99191.03
2023-03-06T16:02:14.406Z,99107.47
2023-03-06T16:04:43.412Z,99193.06
2023-03-06T16:07:13.240Z,99193.28
2023-03-06T16:09:43.469Z,99189.91
2023-03-06T16:12:22.222Z,99200.38
2023-03-06T16:14:51.128Z,99234.09
2023-03-06T16:17:20.430Z,99219.56
2023-03-06T16:19:49.115Z,99221.34
2023-03-06T16:22:17.948Z,99234.28
2023-03-06T16:24:47.203Z,99222.31
2023-03-06T16:27:20.600Z,99223.25
2023-03-06T16:29:49.085Z,99121.59
2023-03-06T16:32:17.808Z,99240.69
2023-03-06T16:34:46.687Z,99246.03
2023-03-06T16:37:15.480Z,99262.41
2023-03-06T16:39:44.960Z,99240.16
2023-03-06T16:42:13.808Z,99256.50
2023-03-06T16:44:43.345Z,99251.41
2023-03-06T16:47:13.188Z,99154.78
2023-03-06T16:49:41.969Z,99221.63
2023-03-06T16:52:12.171Z,99300.47
2023-03-06T16:54:41.665Z,99293.69
2023-03-06T16:57:15.298Z,99287.03
2023-03-06T16:59:43.986Z,99308.44
2023-03-06T17:02:13.614Z,99331.75
2023-03-06T17:04:42.350Z,99237.56
2023-03-06T17:07:11.197Z,99310.34
2023-03-06T17:09:40.001Z,99239.38
2023-03-06T17:12:09.701Z,99309.59
2023-03-06T17:14:39.242Z,99331.03
2023-03-06T17:17:08.165Z,99306.31
2023-03-06T17:19:37.568Z,99299.47
2023-03-06T17:22:06.499Z,99316.66
2023-03-06T17:24:37.083Z,99301.34
2023-03-06T17:27:05.595Z,99346.88
2023-03-06T17:29:34.250Z,99178.31
2023-03-06T17:32:04.286Z,99313.66
2023-03-06T17:34:33.226Z,99307.72
2023-03-06T17:37:04.812Z,99318.88
2023-03-06T17:39:36.020Z,99355.84
2023-03-06T17:42:06.284Z,99348.13
2023-03-06T17:44:35.571Z,99250.41
2023-03-06T17:47:05.356Z,99356.75
2023-03-06T17:49:34.215Z,99358.47
2023-03-06T17:52:06.940Z,99343.97
2023-03-06T17:54:35.967Z,99345.69
2023-03-06T17:57:06.364Z,99331.97
2023-03-06T17:59:35.358Z,99367.19
2023-03-06T18:02:04.290Z,99381.78
2023-03-06T18:04:32.860Z,99347.44
2023-03-06T18:07:01.954Z,99350.03
2023-03-06T18:09:30.593Z,99290.88
2023-03-06T18:11:59.453Z,99327.72
2023-03-06T18:14:28.239Z,99290.03
2023-03-06T18:16:56.976Z,99391.25
2023-03-06T18:19:25.673Z,99384.44
2023-03-06T18:21:54.154Z,99164.19
2023-03-06T18:24:23.065Z,99359.56
2023-03-06T18:26:52.096Z,99398.25
2023-03-06T18:29:20.812Z,99361.38
2023-03-06T18:31:51.236Z,99302.25
2023-03-06T18:34:19.872Z,99385.44
2023-03-06T18:36:51.477Z,99385.47
2023-03-06T18:39:22.212Z,99404.38
2023-03-06T18:41:51.181Z,99379.53
2023-03-06T18:44:19.873Z,99373.53
2023-03-06T18:46:48.260Z,99310.13
2023-03-06T18:49:17.047Z,99389.03
2023-03-06T18:51:45.757Z,99412.28
2023-03-06T18:54:14.278Z,99377.16
2023-03-06T18:56:45.324Z,99383.22
2023-03-06T18:59:18.633Z,99418.44
2023-03-06T19:01:48.700Z,99419.31
2023-03-06T19:04:17.590Z,99415.91
2023-03-06T19:06:48.677Z,99426.22
2023-03-06T19:09:17.598Z,99402.19
2023-03-06T19:11:47.538Z,99426.25
2023-03-06T19:14:16.729Z,99415.09
2023-03-06T19:16:45.549Z,99433.16
2023-03-06T19:19:14.296Z,99428.88
2023-03-06T19:21:43.304Z,99409.13
2023-03-06T19:24:14.801Z,99411.69
2023-03-06T19:26:44.038Z,99421.19
2023-03-06T19:29:12.963Z,99416.91
2023-03-06T19:31:42.882Z,99344.75
2023-03-06T19:34:11.765Z,99434.94
2023-03-06T19:36:41.403Z,99350.78
2023-03-06T19:39:11.685Z,99433.25
2023-03-06T19:41:40.365Z,99459.00
2023-03-06T19:44:12.993Z,99459.88
2023-03-06T19:46:41.788Z,99464.16
2023-03-06T19:49:16.638Z,99459.00
2023-03-06T19:51:45.675Z,99365.38
2023-03-06T19:54:15.169Z,99441.84
2023-03-06T19:56:43.996Z,99461.59
2023-03-06T19:59:12.730Z,99450.44
2023-03-06T20:01:41.723Z,99452.16
2023-03-06T20:04:10.737Z,99454.75
2023-03-06T20:06:39.669Z,99451.28
2023-03-06T20:09:10.216Z,99471.91
2023-03-06T20:11:39.914Z,99468.47
2023-03-06T20:14:09.869Z,99471.94
2023-03-06T20:16:39.184Z,99371.41
2023-03-06T20:19:09.396Z,99351.63
2023-03-06T20:21:39.257Z,99487.38
2023-03-06T20:24:10.576Z,99498.56
2023-03-06T20:26:39.553Z,99472.78
2023-03-06T20:29:08.300Z,99494.25
2023-03-06T20:31:37.578Z,99483.09
2023-03-06T20:34:06.685Z,99513.19
2023-03-06T20:36:39.952Z,99505.41
2023-03-06T20:39:12.115Z,99498.56
2023-03-06T20:41:41.171Z,99363.59
2023-03-06T20:44:13.563Z,99528.63
2023-03-06T20:46:42.640Z,99419.44
2023-03-06T20:49:16.201Z,99510.56
2023-03-06T20:51:45.039Z,99501.97
2023-03-06T20:54:15.958Z,99501.94
2023-03-06T20:56:49.127Z,99508.88
2023-03-06T20:59:18.091Z,99518.31
2023-03-06T21:01:48.567Z,99511.41
2023-03-06T21:04:19.797Z,99518.28
2023-03-06T21:06:48.555Z,99524.31
2023-03-06T21:09:18.504Z,99501.91
2023-03-06T21:11:47.441Z,99522.56
2023-03-06T21:14:16.957Z,99500.22
2023-03-06T21:16:45.722Z,99422.81
2023-03-06T21:19:14.578Z,99426.25
2023-03-06T21:21:43.360Z,99515.66
2023-03-06T21:24:12.342Z,99502.72
2023-03-06T21:26:41.043Z,99503.56
2023-03-06T21:29:10.502Z,99512.13
2023-03-06T21:31:42.156Z,99524.16
2023-03-06T21:34:12.261Z,99511.22
2023-03-06T21:36:41.163Z,99522.38
2023-03-06T21:39:13.001Z,99538.69
2023-03-06T21:41:42.004Z,99542.94
2023-03-06T21:44:12.941Z,99525.69
2023-03-06T21:46:41.751Z,99553.19
2023-03-06T21:49:10.407Z,99537.69
2023-03-06T21:51:39.204Z,99566.91
2023-03-06T21:54:10.351Z,99549.69
2023-03-06T21:56:38.958Z,99468.78
2023-03-06T21:59:07.843Z,99468.78
2023-03-06T22:01:36.624Z,99538.47
2023-03-06T22:04:05.737Z,99563.41
2023-03-06T22:06:34.402Z,99579.72
2023-03-06T22:09:05.028Z,99475.63
2023-03-06T22:11:37.604Z,99551.31
2023-03-06T22:14:07.127Z,99539.31
2023-03-06T22:16:35.976Z,99565.97
2023-03-06T22:19:04.905Z,99591.78
2023-03-06T22:21:33.761Z,99589.19
2023-03-06T22:24:02.605Z,99593.44
2023-03-06T22:26:31.641Z,99574.53
2023-03-06T22:29:00.413Z,99589.16
2023-03-06T22:31:29.955Z,99579.66
2023-03-06T22:34:01.185Z,99593.44
2023-03-06T22:36:33.281Z,99582.25
2023-03-06T22:39:05.019Z,99496.19
2023-03-06T22:41:33.757Z,99599.44
2023-03-06T22:44:03.278Z,99583.09
2023-03-06T22:46:34.738Z,99593.44
2023-03-06T22:49:03.975Z,99493.59
2023-03-06T22:51:32.976Z,99598.56
2023-03-06T22:54:01.903Z,99493.53
2023-03-06T22:56:30.866Z,99614.88
2023-03-06T22:59:00.394Z,99607.03
2023-03-06T23:01:31.834Z,99587.28
2023-03-06T23:04:03.038Z,99629.44
2023-03-06T23:06:34.668Z,99626.78
2023-03-06T23:09:09.480Z,99619.06
2023-03-06T23:11:57.079Z,99597.47
2023-03-06T23:14:44.363Z,99613.81
2023-03-06T23:17:31.821Z,99586.25
2023-03-06T23:20:19.158Z,99543.09
2023-03-06T23:23:06.541Z,99645.59
2023-03-06T23:25:45.033Z,99605.91
2023-03-06T23:28:13.859Z,99665.25
2023-03-06T23:30:43.381Z,99651.53
2023-03-06T23:33:12.202Z,99638.59
2023-03-06T23:35:41.091Z,99617.91
2023-03-06T23:38:09.941Z,99626.50
2023-03-06T23:40:40.145Z,99638.53
2023-03-06T23:43:09.209Z,99669.50
2023-03-06T23:45:40.823Z,99659.97
2023-03-06T23:48:09.602Z,99655.63
2023-03-06T23:50:41.048Z,99653.88
2023-03-06T23:53:09.589Z,99655.53
2023-03-06T23:55:49.064Z,99694.22
2023-03-06T23:58:19.494Z,99703.69
